Time;durP1;ratioP1;P1;durP2;ratioP2;P2;SDS_P1;SDS_P2;PMS_P1;PMS_P2;Temp;Humidity;BMP_temperature;BMP_pressure;BME280_temperature;BME280_humidity;BME280_pressure;Samples;Min_cycle;Max_cycle;Signal;HPM_P1;HPM_P2
2022/04/19 00:00:44;;;;;;;0.50;0.50;;;;;;;1.35;97.03;94184.22;5031628;28;20208;-80
2022/04/19 00:03:14;;;;;;;0.20;0.20;;;;;;;1.38;96.93;94181.75;5019585;28;20205;-79
2022/04/19 00:05:41;;;;;;;0.20;0.20;;;;;;;1.39;96.63;94183.34;5017754;28;20207;-80
2022/04/19 00:08:09;;;;;;;0.50;0.50;;;;;;;1.48;96.60;94180.09;5031839;28;20296;-79
2022/04/19 00:10:36;;;;;;;0.20;0.20;;;;;;;1.49;96.38;94176.34;5031022;28;20204;-79
2022/04/19 00:13:05;;;;;;;0.40;0.40;;;;;;;1.45;95.92;94175.31;5031253;28;20200;-80
2022/04/19 00:15:32;;;;;;;0.10;0.10;;;;;;;1.33;96.00;94170.34;5017778;28;20216;-79
2022/04/19 00:18:02;;;;;;;0.28;0.28;;;;;;;1.34;96.16;94164.75;5029931;28;20581;-79
2022/04/19 00:20:29;;;;;;;0.20;0.20;;;;;;;1.37;96.11;94166.03;5030862;28;20192;-79
2022/04/19 00:22:57;;;;;;;0.60;0.60;;;;;;;1.30;96.33;94163.69;5031014;28;20656;-79
2022/04/19 00:25:24;;;;;;;0.35;0.35;;;;;;;1.35;96.26;94161.00;5039797;28;20208;-79
2022/04/19 00:27:51;;;;;;;0.20;0.20;;;;;;;1.39;96.20;94159.34;5031076;28;20259;-79
2022/04/19 00:30:18;;;;;;;0.28;0.28;;;;;;;1.34;96.03;94159.41;5030199;28;20211;-79
2022/04/19 00:32:46;;;;;;;0.52;0.38;;;;;;;1.41;95.99;94153.72;5031052;28;20212;-79
2022/04/19 00:35:14;;;;;;;0.30;0.30;;;;;;;1.19;96.03;94154.19;5031153;28;20207;-80
2022/04/19 00:37:41;;;;;;;0.20;0.20;;;;;;;1.24;96.22;94148.81;5030878;28;20212;-79
2022/04/19 00:40:10;;;;;;;0.20;0.20;;;;;;;1.49;96.45;94147.00;5030695;28;20559;-80
2022/04/19 00:42:37;;;;;;;0.10;0.10;;;;;;;1.41;95.96;94148.38;5030244;28;20228;-80
2022/04/19 00:45:06;;;;;;;0.30;0.30;;;;;;;1.40;95.47;94136.91;5030709;28;20572;-80
2022/04/19 00:47:33;;;;;;;0.20;0.20;;;;;;;1.47;95.70;94143.81;5030921;28;20236;-80
2022/04/19 00:50:02;;;;;;;0.20;0.20;;;;;;;1.32;95.58;94142.88;5030732;28;20207;-80
2022/04/19 00:52:31;;;;;;;0.28;0.28;;;;;;;1.38;95.95;94133.72;5030817;28;20212;-81
2022/04/19 00:54:59;;;;;;;0.20;0.20;;;;;;;1.41;95.60;94141.19;5030525;28;20205;-79
2022/04/19 00:57:27;;;;;;;0.10;0.10;;;;;;;1.36;95.16;94141.25;5031094;28;20226;-80
2022/04/19 00:59:55;;;;;;;0.40;0.40;;;;;;;1.38;95.53;94144.41;5030769;28;20610;-79
2022/04/19 01:02:22;;;;;;;0.47;0.47;;;;;;;1.27;96.00;94142.91;5030526;28;20197;-79
2022/04/19 01:04:50;;;;;;;0.10;0.10;;;;;;;1.31;95.75;94138.63;5030957;28;20212;-79
2022/04/19 01:07:18;;;;;;;0.22;0.22;;;;;;;1.29;95.86;94132.75;5030697;28;20767;-80
2022/04/19 01:09:47;;;;;;;0.20;0.20;;;;;;;1.22;96.29;94132.31;5030976;28;20278;-79
2022/04/19 01:15:03;;;;;;;0.47;0.47;;;;;;;1.18;96.18;94133.94;5030181;28;20295;-80
2022/04/19 01:17:30;;;;;;;0.38;0.38;;;;;;;1.18;96.33;94128.59;5030582;28;20208;-82
2022/04/19 01:19:57;;;;;;;0.20;0.20;;;;;;;1.14;96.43;94127.56;5030449;28;20204;-81
2022/04/19 01:22:26;;;;;;;0.20;0.20;;;;;;;1.10;96.98;94131.88;5030174;28;20215;-80
2022/04/19 01:24:52;;;;;;;0.20;0.20;;;;;;;1.20;96.99;94126.47;5029853;28;20204;-78
2022/04/19 01:27:19;;;;;;;0.20;0.20;;;;;;;1.18;97.21;94125.94;5029997;28;20225;-81
2022/04/19 01:29:47;;;;;;;0.13;0.13;;;;;;;1.10;97.10;94131.88;5033625;28;20660;-78
2022/04/19 01:32:14;;;;;;;0.20;0.20;;;;;;;1.08;97.14;94131.38;5034062;28;20682;-83
2022/04/19 01:34:40;;;;;;;0.40;0.40;;;;;;;1.10;97.25;94129.19;5033942;28;20774;-86
2022/04/19 01:37:07;;;;;;;3.55;1.13;;;;;;;1.07;97.63;94127.13;5034173;28;20208;-80
2022/04/19 01:42:19;;;;;;;0.20;0.20;;;;;;;1.10;97.76;94121.19;5033516;28;20235;-79
2022/04/19 01:44:47;;;;;;;0.20;0.20;;;;;;;1.07;97.75;94124.44;5033420;28;20192;-81
2022/04/19 01:47:14;;;;;;;0.20;0.20;;;;;;;1.10;97.71;94126.53;5032655;28;20242;-81
2022/04/19 01:49:41;;;;;;;0.20;0.20;;;;;;;1.11;97.67;94132.66;5033551;28;20268;-81
2022/04/19 01:52:09;;;;;;;0.57;0.57;;;;;;;1.13;98.00;94131.31;5033510;28;20204;-79
2022/04/19 01:54:37;;;;;;;0.10;0.10;;;;;;;1.06;97.98;94125.53;5033660;28;20671;-87
2022/04/19 01:57:04;;;;;;;2.72;0.90;;;;;;;0.98;98.19;94118.09;5033373;28;20215;-79
2022/04/19 01:59:31;;;;;;;0.17;0.17;;;;;;;0.98;98.30;94123.44;5033325;28;20719;-82
2022/04/19 02:01:58;;;;;;;0.20;0.20;;;;;;;0.99;98.43;94125.03;5033431;28;20200;-79
2022/04/19 02:04:25;;;;;;;0.30;0.30;;;;;;;0.99;98.51;94125.03;5033837;28;20204;-84
2022/04/19 02:06:52;;;;;;;0.30;0.30;;;;;;;1.07;98.47;94132.44;5033312;28;20228;-79
2022/04/19 02:09:19;;;;;;;0.30;0.30;;;;;;;1.05;98.25;94123.94;5033941;28;20209;-85
2022/04/19 02:11:47;;;;;;;0.20;0.20;;;;;;;0.97;98.18;94119.97;5033857;28;20203;-80
2022/04/19 02:14:14;;;;;;;0.30;0.30;;;;;;;1.01;98.26;94122.88;5033172;28;20629;-82
2022/04/19 02:16:41;;;;;;;0.68;0.68;;;;;;;1.04;98.38;94122.34;5033592;28;20224;-81
2022/04/19 02:19:09;;;;;;;0.40;0.40;;;;;;;1.05;98.36;94119.38;5032908;28;20636;-81
2022/04/19 02:21:36;;;;;;;0.22;0.22;;;;;;;1.09;98.17;94124.97;5033111;28;20563;-80
2022/04/19 02:24:03;;;;;;;0.47;0.47;;;;;;;1.04;98.05;94123.13;5033250;28;20610;-81
2022/04/19 02:26:30;;;;;;;0.43;0.43;;;;;;;1.04;98.21;94122.34;5032829;28;20211;-81
2022/04/19 02:28:58;;;;;;;0.20;0.20;;;;;;;1.01;97.92;94123.69;5032935;28;20288;-80
2022/04/19 02:31:27;;;;;;;0.20;0.20;;;;;;;1.04;98.31;94122.34;5033128;28;20204;-82
2022/04/19 02:33:54;;;;;;;0.20;0.20;;;;;;;1.05;98.40;94123.94;5033505;28;20204;-79
2022/04/19 02:36:21;;;;;;;0.20;0.20;;;;;;;1.13;98.07;94109.97;5033055;28;20232;-84
2022/04/19 02:38:48;;;;;;;0.30;0.30;;;;;;;1.12;97.75;94116.38;5033123;28;20200;-79
2022/04/19 02:41:14;;;;;;;1.27;1.17;;;;;;;1.03;97.86;94120.75;5032229;28;20247;-82
2022/04/19 02:43:41;;;;;;;0.30;0.30;;;;;;;1.06;97.92;94125.53;5033033;28;20225;-82
2022/04/19 02:46:09;;;;;;;0.20;0.20;;;;;;;1.08;98.00;94123.38;5031945;28;20223;-81
2022/04/19 02:48:36;;;;;;;0.30;0.30;;;;;;;1.09;98.18;94124.97;5032595;28;20331;-82
2022/04/19 02:51:05;;;;;;;0.20;0.20;;;;;;;1.00;98.14;94121.28;5033247;28;20231;-86
2022/04/19 02:53:32;;;;;;;0.20;0.20;;;;;;;1.04;98.06;94117.78;5032127;28;20591;-80
2022/04/19 02:55:59;;;;;;;0.30;0.30;;;;;;;1.08;97.94;94131.38;5032528;28;20614;-81
2022/04/19 02:58:27;;;;;;;0.50;0.50;;;;;;;1.07;97.95;94127.13;5032880;28;20240;-87
2022/04/19 03:00:53;;;;;;;0.50;0.32;;;;;;;1.07;98.13;94132.44;5032312;28;20223;-86
2022/04/19 03:03:22;;;;;;;0.85;0.73;;;;;;;1.08;98.34;94134.03;5032138;28;20256;-81
2022/04/19 03:05:49;;;;;;;0.30;0.30;;;;;;;1.10;98.21;94129.19;5032497;28;20200;-78
2022/04/19 03:08:16;;;;;;;1.05;0.80;;;;;;;1.20;98.33;94131.78;5032191;28;20330;-80
2022/04/19 03:10:43;;;;;;;0.30;0.30;;;;;;;1.29;98.35;94138.09;5032250;28;20204;-80
2022/04/19 03:13:10;;;;;;;0.20;0.20;;;;;;;1.28;97.70;94143.72;5031642;28;20196;-83
2022/04/19 03:15:37;;;;;;;0.30;0.30;;;;;;;1.19;98.15;94148.88;5032195;28;20315;-82
2022/04/19 03:18:05;;;;;;;0.30;0.30;;;;;;;1.17;97.76;94145.69;5031678;28;20730;-82
2022/04/19 03:20:33;;;;;;;0.17;0.17;;;;;;;1.33;97.80;94152.47;5031961;28;20668;-82
2022/04/19 03:28:29;;;;;;;0.17;0.17;;;;;;;1.59;96.98;94157.56;5019081;28;20219;-81
2022/04/19 03:30:55;;;;;;;0.30;0.30;;;;;;;1.70;96.84;94151.03;5031654;28;20208;-81
2022/04/19 03:33:22;;;;;;;0.40;0.40;;;;;;;1.85;96.87;94161.53;5015302;28;20201;-82
2022/04/19 03:35:50;;;;;;;0.28;0.28;;;;;;;1.92;96.40;94161.97;5028527;28;20656;-83
2022/04/19 03:38:19;;;;;;;0.20;0.20;;;;;;;1.93;95.69;94150.22;5029338;28;20201;-85
2022/04/19 03:40:46;;;;;;;0.20;0.20;;;;;;;2.00;95.36;94172.03;5030565;28;20607;-84
2022/04/19 03:43:13;;;;;;;0.50;0.50;;;;;;;2.03;95.00;94166.13;5031770;28;20232;-86
2022/04/19 03:45:40;;;;;;;1.88;0.88;;;;;;;2.07;94.68;94166.34;5031718;28;20203;-86
2022/04/19 03:48:07;;;;;;;0.40;0.40;;;;;;;1.84;94.57;94162.63;5031104;28;20687;-83
2022/04/19 03:50:34;;;;;;;0.20;0.20;;;;;;;1.73;94.85;94169.94;5031634;28;20208;-85
2022/04/19 03:53:02;;;;;;;0.20;0.20;;;;;;;1.61;94.77;94174.09;5030993;28;20315;-80
2022/04/19 03:55:29;;;;;;;1.23;0.50;;;;;;;1.57;95.48;94173.06;5031385;28;20201;-81
2022/04/19 03:57:56;;;;;;;1.50;1.10;;;;;;;1.51;95.40;94179.50;5030601;28;20423;-85
2022/04/19 04:00:23;;;;;;;0.43;0.43;;;;;;;1.52;95.63;94175.75;5031517;28;20200;-86
2022/04/19 04:02:50;;;;;;;0.57;0.57;;;;;;;1.48;95.50;94180.88;5030711;28;20188;-82
2022/04/19 04:05:17;;;;;;;0.40;0.35;;;;;;;1.45;95.83;94181.44;5030706;28;20207;-81
2022/04/19 04:07:44;;;;;;;0.85;0.52;;;;;;;1.35;95.70;94189.53;5030916;28;20626;-82
2022/04/19 04:10:12;;;;;;;0.20;0.20;;;;;;;1.24;96.31;94190.69;5031308;28;20198;-81
2022/04/19 04:12:39;;;;;;;0.20;0.20;;;;;;;1.27;96.35;94190.94;5031093;28;20203;-82
2022/04/19 04:15:07;;;;;;;0.25;0.25;;;;;;;1.35;96.49;94187.69;5030362;28;20220;-82
2022/04/19 04:17:34;;;;;;;0.35;0.35;;;;;;;1.20;96.55;94189.69;5030521;28;20208;-81
2022/04/19 04:20:01;;;;;;;0.20;0.20;;;;;;;1.30;96.71;94195.72;5030523;28;20585;-82
2022/04/19 04:22:29;;;;;;;0.20;0.20;;;;;;;1.35;96.78;94193.00;5030997;28;20200;-82
2022/04/19 04:24:56;;;;;;;0.20;0.20;;;;;;;1.59;96.15;94194.91;5040435;28;20201;-81
2022/04/19 04:27:24;;;;;;;0.20;0.20;;;;;;;1.62;95.53;94192.50;5030007;28;20598;-81
2022/04/19 04:29:51;;;;;;;0.20;0.20;;;;;;;1.69;95.17;94197.47;5030197;28;20614;-80
2022/04/19 04:32:18;;;;;;;1.20;1.10;;;;;;;1.74;95.36;94197.44;5029851;28;20196;-81
2022/04/19 04:34:45;;;;;;;0.43;0.43;;;;;;;1.95;95.18;94200.69;5029697;28;20204;-81
2022/04/19 04:37:12;;;;;;;0.57;0.57;;;;;;;2.07;94.44;94199.19;5030641;28;20251;-80
2022/04/19 04:39:39;;;;;;;0.30;0.30;;;;;;;1.99;93.93;94199.03;5030388;28;20239;-82
2022/04/19 04:42:06;;;;;;;0.47;0.47;;;;;;;2.17;93.59;94200.19;5030806;28;20215;-81
2022/04/19 04:44:35;;;;;;;0.30;0.30;;;;;;;2.47;92.79;94202.44;5030708;28;20201;-81
2022/04/19 04:49:46;;;;;;;0.43;0.43;;;;;;;2.56;91.95;94206.09;5018023;28;20191;-80
2022/04/19 04:52:14;;;;;;;0.70;0.70;;;;;;;2.59;90.98;94208.19;5031116;28;20568;-79
2022/04/19 04:54:42;;;;;;;0.20;0.20;;;;;;;2.78;91.57;94208.97;5030732;28;20208;-80
2022/04/19 04:57:10;;;;;;;0.20;0.20;;;;;;;3.02;90.51;94205.44;5030869;28;20208;-80
2022/04/19 04:59:38;;;;;;;0.40;0.40;;;;;;;3.30;88.76;94198.31;5026647;28;20252;-80
2022/04/19 05:02:06;;;;;;;1.00;0.63;;;;;;;3.42;88.57;94207.47;5020559;28;20216;-80
2022/04/19 05:04:33;;;;;;;0.30;0.30;;;;;;;3.42;88.51;94204.78;5023711;28;20201;-83
2022/04/19 05:07:00;;;;;;;0.73;0.50;;;;;;;3.49;87.92;94207.91;5048124;28;20213;-80
2022/04/19 05:09:26;;;;;;;2.30;1.40;;;;;;;3.66;87.02;94211.91;5034901;28;20243;-81
2022/04/19 05:11:54;;;;;;;0.55;0.55;;;;;;;4.07;86.43;94196.69;5034240;28;20196;-81
2022/04/19 05:14:21;;;;;;;0.47;0.40;;;;;;;4.33;85.24;94204.22;5034723;28;20228;-81
2022/04/19 05:16:49;;;;;;;2.13;1.00;;;;;;;4.51;84.42;94200.66;5034495;28;20208;-81
2022/04/19 05:19:16;;;;;;;0.70;0.70;;;;;;;4.53;83.35;94201.91;5033904;28;20208;-83
2022/04/19 05:21:43;;;;;;;0.55;0.55;;;;;;;4.15;84.25;94203.22;5034444;28;20200;-82
2022/04/19 05:24:10;;;;;;;1.10;1.02;;;;;;;3.87;84.69;94207.78;5041205;28;20206;-82
2022/04/19 05:26:37;;;;;;;2.33;1.33;;;;;;;3.79;85.04;94211.13;5036800;28;20207;-82
2022/04/19 05:29:05;;;;;;;1.90;1.50;;;;;;;3.92;85.55;94210.38;5034290;28;20646;-83
2022/04/19 05:31:32;;;;;;;1.02;0.90;;;;;;;4.09;85.96;94212.47;5034021;28;20208;-84
2022/04/19 05:34:00;;;;;;;0.82;0.82;;;;;;;4.01;85.25;94213.94;5033576;28;20215;-83
2022/04/19 05:36:26;;;;;;;3.00;1.73;;;;;;;4.22;84.33;94207.13;5033271;28;20378;-83
2022/04/19 05:38:54;;;;;;;0.40;0.40;;;;;;;4.36;84.21;94206.31;5033413;28;20267;-83
2022/04/19 05:41:21;;;;;;;0.35;0.35;;;;;;;3.71;83.90;94217.16;5033203;28;20547;-80
2022/04/19 05:43:48;;;;;;;1.95;1.45;;;;;;;3.46;85.64;94224.53;5032929;28;20263;-81
2022/04/19 05:46:17;;;;;;;0.75;0.75;;;;;;;3.34;85.75;94226.88;5033163;28;20216;-80
2022/04/19 05:48:44;;;;;;;5.15;0.90;;;;;;;3.45;86.73;94228.31;5034099;28;20274;-79
2022/04/19 05:51:13;;;;;;;2.33;0.85;;;;;;;3.41;86.29;94227.31;5032868;28;20200;-80
2022/04/19 05:53:40;;;;;;;0.20;0.20;;;;;;;3.13;86.79;94226.41;5033422;28;20278;-81
2022/04/19 05:56:07;;;;;;;0.45;0.45;;;;;;;2.78;87.92;94230.38;5033647;28;20216;-80
2022/04/19 05:58:34;;;;;;;0.38;0.38;;;;;;;2.71;88.52;94243.31;5033621;28;20208;-79
2022/04/19 06:01:01;;;;;;;0.52;0.52;;;;;;;2.91;88.75;94238.75;5033389;28;20204;-79
2022/04/19 06:06:14;;;;;;;0.60;0.60;;;;;;;3.62;86.96;94237.69;5033244;28;20192;-79
2022/04/19 06:08:42;;;;;;;0.55;0.55;;;;;;;4.02;86.81;94234.28;5033104;28;20694;-79
2022/04/19 06:11:11;;;;;;;0.65;0.65;;;;;;;3.91;85.61;94233.69;5033001;28;20211;-79
2022/04/19 06:13:38;;;;;;;0.77;0.77;;;;;;;3.40;86.32;94231.06;5033102;28;20311;-80
2022/04/19 06:16:06;;;;;;;0.28;0.20;;;;;;;3.78;87.07;94241.69;5033075;28;20219;-80
2022/04/19 06:18:33;;;;;;;0.55;0.55;;;;;;;3.67;86.78;94242.97;5033534;28;20208;-80
2022/04/19 06:21:00;;;;;;;0.63;0.63;;;;;;;3.48;86.53;94243.78;5032728;28;20215;-80
2022/04/19 06:23:29;;;;;;;1.20;0.43;;;;;;;3.35;86.49;94246.41;5033488;28;20212;-80
2022/04/19 06:25:55;;;;;;;0.20;0.20;;;;;;;3.35;86.46;94244.53;5040708;28;20213;-79
2022/04/19 06:28:23;;;;;;;0.47;0.30;;;;;;;3.23;85.54;94252.22;5032967;28;20682;-77
2022/04/19 06:30:49;;;;;;;1.05;1.05;;;;;;;3.97;86.88;94239.72;5032551;28;20212;-84
2022/04/19 06:33:16;;;;;;;0.25;0.25;;;;;;;4.20;84.49;94238.78;5033152;28;20204;-79
2022/04/19 06:35:43;;;;;;;0.68;0.68;;;;;;;4.04;82.96;94245.50;5033381;28;20574;-83
2022/04/19 06:38:10;;;;;;;1.20;0.90;;;;;;;3.93;85.23;94250.25;5032548;28;20204;-82
2022/04/19 06:40:38;;;;;;;3.75;2.25;;;;;;;3.58;84.64;94248.97;5033166;28;20205;-78
2022/04/19 06:43:06;;;;;;;0.55;0.52;;;;;;;3.61;85.70;94252.94;5012424;28;20232;-77
2022/04/19 06:45:33;;;;;;;0.30;0.30;;;;;;;4.03;85.67;94243.13;5025758;28;20231;-85
2022/04/19 06:48:01;;;;;;;1.08;1.00;;;;;;;4.70;85.15;94241.53;5032238;28;20602;-83
2022/04/19 06:50:29;;;;;;;1.63;1.52;;;;;;;4.64;82.62;94250.81;5022174;28;20201;-76
2022/04/19 06:52:56;;;;;;;0.55;0.55;;;;;;;4.48;83.63;94252.19;5028249;28;20200;-78
2022/04/19 06:55:24;;;;;;;3.30;1.00;;;;;;;4.28;83.99;94256.84;5024695;28;20200;-82
2022/04/19 06:57:52;;;;;;;2.10;1.13;;;;;;;3.57;83.45;94263.44;5022517;28;20208;-76
2022/04/19 07:00:19;;;;;;;0.20;0.20;;;;;;;3.08;85.94;94263.94;5031251;28;20208;-77
2022/04/19 07:02:48;;;;;;;0.15;0.15;;;;;;;2.94;86.34;94273.75;5024272;28;20204;-82
2022/04/19 07:05:15;;;;;;;0.50;0.50;;;;;;;2.87;86.73;94273.31;5031863;28;20215;-80
2022/04/19 07:07:43;;;;;;;0.30;0.30;;;;;;;2.76;87.95;94264.63;5032453;28;20205;-78
2022/04/19 07:10:11;;;;;;;1.45;0.65;;;;;;;2.84;88.40;94266.69;5031207;28;20239;-78
2022/04/19 07:12:39;;;;;;;0.30;0.30;;;;;;;3.10;87.95;94277.81;5017690;28;20299;-78
2022/04/19 07:15:09;;;;;;;0.20;0.20;;;;;;;3.55;87.74;94276.31;5028394;28;20227;-80
2022/04/19 07:17:40;;;;;;;0.45;0.45;;;;;;;3.42;86.12;94270.91;5031485;28;20244;-78
2022/04/19 07:28:23;;;;;;;0.20;0.20;;;;;;;3.90;87.64;94266.91;5033105;28;20258;-79
2022/04/19 07:30:51;;;;;;;0.55;0.40;;;;;;;3.62;86.92;94264.47;5029090;28;20201;-79
2022/04/19 07:33:18;;;;;;;0.38;0.38;;;;;;;3.77;85.56;94272.25;5024079;28;20211;-82
2022/04/19 07:35:45;;;;;;;0.20;0.20;;;;;;;3.81;84.44;94265.22;5031440;28;20688;-80
2022/04/19 07:38:12;;;;;;;0.20;0.20;;;;;;;3.86;85.00;94275.84;5031909;28;20200;-76
2022/04/19 07:40:39;;;;;;;0.57;0.57;;;;;;;4.00;85.24;94273.97;5030010;28;20205;-81
2022/04/19 07:43:06;;;;;;;0.17;0.17;;;;;;;4.16;83.47;94269.94;5026242;28;20236;-76
2022/04/19 07:45:33;;;;;;;3.33;0.70;;;;;;;4.10;82.22;94276.47;5031453;28;20311;-79
2022/04/19 07:48:03;;;;;;;0.38;0.38;;;;;;;3.74;83.53;94275.50;5031840;28;20211;-75
2022/04/19 07:50:30;;;;;;;1.98;0.45;;;;;;;4.03;84.22;94278.75;5030518;28;20608;-78
2022/04/19 07:52:56;;;;;;;0.30;0.30;;;;;;;4.28;83.12;94278.28;5029433;28;20203;-77
2022/04/19 07:55:24;;;;;;;0.28;0.28;;;;;;;4.39;82.65;94272.72;5030648;28;20204;-85
2022/04/19 07:57:51;;;;;;;0.22;0.22;;;;;;;4.88;82.46;94274.72;5030565;28;20299;-78
2022/04/19 08:00:19;;;;;;;0.40;0.40;;;;;;;4.93;82.39;94278.06;5031154;28;20208;-81
2022/04/19 08:02:46;;;;;;;0.47;0.47;;;;;;;5.46;80.78;94269.41;5023318;28;20227;-78
2022/04/19 08:05:15;;;;;;;0.20;0.20;;;;;;;5.46;80.31;94264.03;5045963;28;20230;-77
2022/04/19 08:07:42;;;;;;;0.65;0.65;;;;;;;5.64;80.89;94259.56;5044990;28;20312;-80
2022/04/19 08:10:09;;;;;;;0.32;0.32;;;;;;;6.29;78.47;94269.78;5031147;28;20270;-81
2022/04/19 08:12:36;;;;;;;0.32;0.32;;;;;;;6.56;76.12;94266.16;5029186;28;20281;-80
2022/04/19 08:15:03;;;;;;;0.32;0.32;;;;;;;5.92;74.56;94271.03;5031029;28;20216;-80
2022/04/19 08:17:29;;;;;;;0.40;0.40;;;;;;;6.10;73.26;94272.72;5039986;28;20203;-81
2022/04/19 08:19:57;;;;;;;0.30;0.30;;;;;;;6.60;73.20;94267.09;5035152;28;20200;-83
2022/04/19 08:22:25;;;;;;;0.55;0.55;;;;;;;6.31;72.70;94252.25;5031210;28;20274;-83
2022/04/19 08:24:52;;;;;;;0.70;0.70;;;;;;;6.68;71.16;94260.97;5039995;28;20258;-83
2022/04/19 08:27:20;;;;;;;0.30;0.30;;;;;;;6.41;72.05;94268.13;5030167;28;20208;-78
2022/04/19 08:29:48;;;;;;;0.40;0.40;;;;;;;5.60;70.47;94264.75;5030624;28;20228;-74
2022/04/19 08:32:16;;;;;;;0.60;0.60;;;;;;;5.42;74.85;94257.69;5041160;28;20234;-80
2022/04/19 08:34:43;;;;;;;0.40;0.40;;;;;;;5.96;71.88;94262.03;5050674;28;20581;-80
2022/04/19 08:37:10;;;;;;;0.30;0.30;;;;;;;6.77;70.18;94251.78;5050994;28;20215;-83
2022/04/19 08:39:39;;;;;;;0.60;0.60;;;;;;;7.45;68.67;94253.00;5053908;28;20574;-81
2022/04/19 08:42:06;;;;;;;0.30;0.30;;;;;;;7.95;65.72;94243.59;5054409;28;20546;-82
2022/04/19 08:44:35;;;;;;;0.45;0.45;;;;;;;7.86;64.47;94240.94;5054919;28;20254;-84
2022/04/19 08:47:06;;;;;;;0.40;0.38;;;;;;;7.88;69.37;94243.31;5054701;28;20267;-79
2022/04/19 08:49:38;;;;;;;0.73;0.73;;;;;;;8.31;65.94;94227.03;5054631;28;20795;-81
2022/04/19 08:52:05;;;;;;;0.30;0.30;;;;;;;8.44;63.50;94234.94;5054296;28;20203;-77
2022/04/19 08:57:34;;;;;;;0.68;0.68;;;;;;;6.82;63.82;94239.31;4996335;28;20211;-81
2022/04/19 09:00:02;;;;;;;1.10;0.82;;;;;;;7.49;63.16;94240.50;5034046;28;20262;-80
2022/04/19 09:02:31;;;;;;;1.75;0.50;;;;;;;8.21;63.11;94237.03;5033427;28;20247;-79
2022/04/19 09:05:13;;;;;;;0.63;0.32;;;;;;;8.82;59.95;94228.72;5033924;28;20240;-78
2022/04/19 09:07:41;;;;;;;0.40;0.40;;;;;;;8.58;59.67;94221.22;5054148;28;20203;-81
2022/04/19 09:10:11;;;;;;;29.02;1.15;;;;;;;9.29;60.41;94220.50;5051314;28;20243;-82
2022/04/19 09:12:57;;;;;;;0.98;0.75;;;;;;;9.58;56.12;94215.00;5034173;28;20231;-80
2022/04/19 09:15:24;;;;;;;0.57;0.55;;;;;;;9.36;56.36;94220.75;5047165;28;20196;-79
2022/04/19 09:17:52;;;;;;;0.80;0.80;;;;;;;8.70;56.92;94220.53;5033665;28;20212;-80
2022/04/19 09:20:20;;;;;;;0.90;0.85;;;;;;;8.59;57.78;94230.13;5020492;28;20604;-79
2022/04/19 09:22:49;;;;;;;1.85;1.58;;;;;;;8.58;59.68;94225.84;5033605;28;20209;-79
2022/04/19 09:25:18;;;;;;;1.00;0.88;;;;;;;8.67;56.98;94226.59;5042389;28;20228;-80
2022/04/19 09:27:47;;;;;;;0.40;0.40;;;;;;;9.49;56.74;94219.69;5033864;28;20216;-79
2022/04/19 09:30:19;;;;;;;0.82;0.82;;;;;;;8.93;56.97;94224.53;5032461;28;20274;-81
2022/04/19 09:33:04;;;;;;;0.60;0.60;;;;;;;8.97;57.81;94220.06;5033639;28;20200;-79
2022/04/19 09:35:32;;;;;;;0.63;0.63;;;;;;;8.51;57.94;94219.03;5033792;28;20280;-79
2022/04/19 09:37:59;;;;;;;0.45;0.45;;;;;;;7.87;57.85;94220.94;5033893;28;20208;-76
2022/04/19 09:40:30;;;;;;;0.30;0.30;;;;;;;7.95;57.26;94222.03;5033705;28;20212;-78
2022/04/19 09:42:58;;;;;;;0.30;0.30;;;;;;;7.95;57.56;94227.41;5020331;28;20244;-78
2022/04/19 09:45:28;;;;;;;1.13;0.93;;;;;;;7.47;56.31;94223.06;5033243;28;20331;-78
2022/04/19 09:47:55;;;;;;;0.52;0.52;;;;;;;7.27;58.78;94224.47;5033920;28;20247;-77
2022/04/19 09:50:22;;;;;;;0.85;0.65;;;;;;;7.21;55.63;94227.66;5032680;28;20750;-73
2022/04/19 09:52:51;;;;;;;1.08;0.73;;;;;;;7.32;59.68;94229.72;5033580;28;20642;-79
2022/04/19 09:55:18;;;;;;;1.17;0.77;;;;;;;7.30;56.66;94223.84;5033447;28;20207;-82
2022/04/19 09:57:47;;;;;;;0.40;0.40;;;;;;;7.90;57.75;94211.44;5032917;28;20577;-80
2022/04/19 10:00:17;;;;;;;0.57;0.57;;;;;;;8.06;57.18;94204.41;5032879;28;20200;-81
2022/04/19 10:08:19;;;;;;;0.85;0.60;;;;;;;9.62;51.69;94197.00;5033501;28;20204;-80
2022/04/19 10:10:47;;;;;;;1.33;0.70;;;;;;;10.11;49.95;94197.19;5033016;28;20709;-84
2022/04/19 10:13:17;;;;;;;0.65;0.65;;;;;;;10.23;50.07;94183.69;5033552;28;20260;-80
2022/04/19 10:15:45;;;;;;;3.05;1.30;;;;;;;11.10;48.05;94186.06;5041486;28;20290;-79
2022/04/19 10:18:13;;;;;;;0.73;0.57;;;;;;;10.55;47.30;94190.94;5052629;28;20975;-80
2022/04/19 10:20:43;;;;;;;1.35;0.98;;;;;;;10.38;46.44;94182.25;5053341;28;20235;-79
2022/04/19 10:23:11;;;;;;;4.68;2.60;;;;;;;9.98;47.46;94186.31;5053241;28;20612;-80
2022/04/19 10:25:43;;;;;;;2.97;1.17;;;;;;;8.93;46.82;94194.03;5043445;28;20208;-81
2022/04/19 10:28:11;;;;;;;0.57;0.57;;;;;;;8.25;49.55;94190.53;5032416;28;20197;-78
2022/04/19 10:30:39;;;;;;;0.85;0.63;;;;;;;8.71;49.63;94189.72;5032748;28;20228;-80
2022/04/19 10:33:49;;;;;;;0.77;0.50;;;;;;;9.04;47.80;94179.00;5032253;28;20208;-81
2022/04/19 10:36:18;;;;;;;0.40;0.30;;;;;;;9.19;47.26;94173.81;5007720;28;20209;-80
2022/04/19 10:38:47;;;;;;;0.50;0.50;;;;;;;9.16;47.98;94177.19;5046756;28;20298;-77
2022/04/19 10:41:48;;;;;;;0.68;0.68;;;;;;;9.61;44.32;94160.28;5052566;28;20207;-81
2022/04/19 10:44:26;;;;;;;1.30;0.98;;;;;;;10.84;45.58;94162.03;5036347;28;20232;-80
2022/04/19 10:47:12;;;;;;;0.73;0.73;;;;;;;10.83;43.58;94165.88;5031979;28;20625;-82
2022/04/19 10:50:08;;;;;;;0.75;0.52;;;;;;;9.82;43.52;94169.16;5032508;28;20778;-79
2022/04/19 10:52:48;;;;;;;0.93;0.68;;;;;;;9.08;46.28;94172.63;5032580;28;20223;-78
2022/04/19 10:55:26;;;;;;;0.68;0.52;;;;;;;9.79;49.74;94175.22;5032106;28;20508;-80
2022/04/19 10:58:12;;;;;;;0.82;0.80;;;;;;;9.78;50.09;94176.34;5031999;28;20212;-83
2022/04/19 11:00:48;;;;;;;1.92;1.20;;;;;;;9.19;54.10;94184.63;5031871;28;20317;-78
2022/04/19 11:03:17;;;;;;;1.02;0.85;;;;;;;9.02;54.50;94182.03;5031846;28;20291;-81
2022/04/19 11:05:47;;;;;;;0.70;0.52;;;;;;;8.95;48.78;94184.50;5032124;28;20250;-81
2022/04/19 11:08:44;;;;;;;2.60;0.57;;;;;;;9.02;52.11;94182.03;5032328;28;20254;-80
2022/04/19 11:11:26;;;;;;;0.43;0.43;;;;;;;8.73;49.99;94171.28;5032334;28;20228;-80
2022/04/19 11:14:19;;;;;;;0.40;0.40;;;;;;;9.18;49.90;94174.16;5031887;28;20718;-78
2022/04/19 11:16:50;;;;;;;0.63;0.63;;;;;;;9.27;50.51;94167.56;5032142;28;20205;-83
2022/04/19 11:19:21;;;;;;;0.57;0.57;;;;;;;9.68;48.48;94173.25;5032366;28;20262;-79
2022/04/19 11:21:58;;;;;;;0.65;0.65;;;;;;;10.08;45.99;94155.34;5031909;28;20243;-80
2022/04/19 11:25:00;;;;;;;0.57;0.57;;;;;;;10.40;42.06;94156.41;5040412;28;20317;-82
2022/04/19 11:28:00;;;;;;;0.55;0.55;;;;;;;11.08;42.87;94153.09;5032044;28;20208;-80
2022/04/19 11:30:27;;;;;;;0.40;0.40;;;;;;;11.86;43.17;94137.16;5031488;28;20232;-80
2022/04/19 11:32:55;;;;;;;2.40;1.40;;;;;;;11.12;42.61;94146.66;5028928;28;20773;-75
2022/04/19 11:35:23;;;;;;;2.42;1.77;;;;;;;10.33;43.50;94156.19;5029724;28;20668;-76
2022/04/19 11:37:51;;;;;;;2.40;1.85;;;;;;;10.29;43.20;94152.56;5030775;28;20216;-76
2022/04/19 11:48:44;;;;;;;0.55;0.55;;;;;;;9.83;43.02;94159.91;5028837;28;20196;-79
2022/04/19 11:51:13;;;;;;;0.52;0.52;;;;;;;10.15;43.71;94152.06;5018144;28;20306;-81
2022/04/19 11:53:41;;;;;;;1.48;1.08;;;;;;;10.74;40.01;94140.84;5031787;28;20205;-78
2022/04/19 11:56:08;;;;;;;2.83;1.95;;;;;;;10.93;41.15;94139.09;5022069;28;20299;-77
2022/04/19 11:58:38;;;;;;;0.63;0.63;;;;;;;9.94;38.57;94139.41;5027248;28;20203;-71
2022/04/19 12:01:07;;;;;;;1.23;1.13;;;;;;;9.16;41.26;94142.03;5050694;28;20208;-74
2022/04/19 12:03:36;;;;;;;0.38;0.38;;;;;;;8.46;43.50;94151.75;5028055;28;20251;-77
2022/04/19 12:06:07;;;;;;;0.60;0.60;;;;;;;7.53;47.80;94173.25;5031169;28;20251;-75
2022/04/19 12:08:37;;;;;;;1.83;1.40;;;;;;;7.57;50.58;94174.22;5031434;28;20219;-71
2022/04/19 12:11:06;;;;;;;1.52;0.73;;;;;;;7.76;51.77;94177.34;5031080;28;20328;-75
2022/04/19 12:13:33;;;;;;;0.28;0.28;;;;;;;7.87;51.40;94171.63;5031252;28;20235;-77
2022/04/19 12:16:03;;;;;;;0.57;0.55;;;;;;;8.49;51.03;94179.97;5030547;28;20215;-76
2022/04/19 12:18:38;;;;;;;2.63;1.08;;;;;;;8.99;50.41;94173.81;5031289;28;20287;-76
2022/04/19 12:21:07;;;;;;;0.35;0.35;;;;;;;9.41;46.63;94166.50;5030491;28;20204;-76
2022/04/19 12:23:35;;;;;;;0.68;0.68;;;;;;;9.33;45.05;94151.13;5029351;28;20648;-72
2022/04/19 12:26:07;;;;;;;0.85;0.60;;;;;;;9.15;43.42;94145.91;5043569;28;20568;-72
2022/04/19 12:28:36;;;;;;;0.52;0.45;;;;;;;9.20;43.85;94148.38;5019160;28;20620;-78
2022/04/19 12:31:03;;;;;;;0.47;0.47;;;;;;;9.60;43.18;94127.03;5029964;28;20228;-76